KHKY

Hickory Regional Airport

Hickory, North Carolina, USA
METAR KHKY 210453Z AUTO 00000KT 10SM CLR 23/23 A3005 RMK AO2 SLP152 T02330233 402940211 TSNO
Observed Flight Rules
Aug-21 @ 04:53 UTC (9 hours ago) Visual Flight Rules
Visibility Clouds
10 miles
  • Clear skies
Temperatures Readings
Current 23°C / 73°F
Dewpoint 23°C / 73°F
Humidity 100%
Altimeter 30.05" Hg
Pressure 1015.2 hPa
Elevation 354
METAR KHKY 210453Z AUTO 00000KT 10SM CLR 23/23 A3005 RMK AO2 SLP152 T02330233 402940211 TSNO
Observed Flight Rules
Aug-21 @ 04:53 UTC
(9 hours ago)
VFR
Clouds
  • Clear skies
Temperature Dewpoint
23°C / 73°F 23°C / 73°F
Humidity Altimeter Pressure
100% 30.05" Hg 1015.2 hPa